createdAt,value
2022-11-15T00:00:25.641Z,0
2022-11-15T00:01:26.147Z,0
2022-11-15T00:02:26.660Z,0
2022-11-15T00:03:27.041Z,0
2022-11-15T00:04:27.065Z,0
2022-11-15T00:05:27.976Z,0
2022-11-15T00:06:28.881Z,0
2022-11-15T00:08:04.786Z,0
2022-11-15T00:08:30.830Z,0
2022-11-15T00:09:31.044Z,0
2022-11-15T00:10:31.365Z,0
2022-11-15T00:11:31.692Z,0
2022-11-15T00:12:32.902Z,0
2022-11-15T00:13:33.348Z,0
2022-11-15T00:14:33.445Z,0
2022-11-15T00:15:33.635Z,0
2022-11-15T00:16:34.133Z,0
2022-11-15T00:17:34.344Z,0
2022-11-15T00:18:35.268Z,0
2022-11-15T00:19:35.865Z,0
2022-11-15T00:20:37.056Z,0
2022-11-15T00:21:37.261Z,0
2022-11-15T00:22:37.442Z,0
2022-11-15T00:23:39.516Z,0
2022-11-15T00:24:38.713Z,0
2022-11-15T00:25:39.200Z,0
2022-11-15T00:26:38.796Z,0
2022-11-15T00:27:39.691Z,0
2022-11-15T00:28:40.580Z,0
2022-11-15T00:29:40.494Z,0
2022-11-15T00:30:41.979Z,0
2022-11-15T00:31:42.178Z,0
2022-11-15T00:32:42.784Z,0
2022-11-15T00:33:43.797Z,0
2022-11-15T00:34:44.278Z,0
2022-11-15T00:35:44.458Z,0
2022-11-15T00:36:45.753Z,0
2022-11-15T00:37:45.662Z,0
2022-11-15T00:38:46.906Z,0
2022-11-15T00:39:47.226Z,0
2022-11-15T00:40:47.132Z,0
2022-11-15T00:41:48.319Z,0
2022-11-15T00:42:49.249Z,0
2022-11-15T00:43:49.358Z,0
2022-11-15T00:44:50.986Z,0
2022-11-15T00:45:50.895Z,0
2022-11-15T00:46:51.516Z,0
2022-11-15T00:47:52.720Z,0
2022-11-15T00:48:52.929Z,0
2022-11-15T00:49:53.113Z,0
2022-11-15T00:50:53.021Z,0
2022-11-15T00:51:53.937Z,0
2022-11-15T00:52:53.830Z,0
2022-11-15T00:53:54.978Z,0
2022-11-15T00:54:56.185Z,0
2022-11-15T00:55:56.369Z,0
2022-11-15T00:56:55.993Z,0
2022-11-15T00:57:57.621Z,0
2022-11-15T00:58:57.231Z,0
2022-11-15T00:59:58.568Z,0
2022-11-15T01:00:59.561Z,0
2022-11-15T01:01:59.620Z,0
2022-11-15T01:03:00.822Z,0
2022-11-15T01:04:06.995Z,0
2022-11-15T01:05:01.484Z,0
2022-11-15T01:06:01.978Z,0
2022-11-15T01:07:02.479Z,0
2022-11-15T01:08:02.465Z,0
2022-11-15T01:09:03.418Z,0
2022-11-15T01:10:03.342Z,0
2022-11-15T01:11:04.249Z,0
2022-11-15T01:12:05.460Z,0
2022-11-15T01:13:06.376Z,0
2022-11-15T01:14:06.689Z,0
2022-11-15T01:15:06.313Z,0
2022-11-15T01:16:07.495Z,0
2022-11-15T01:17:07.707Z,0
2022-11-15T01:18:08.644Z,0
2022-11-15T01:19:08.828Z,0
2022-11-15T01:20:10.035Z,0
2022-11-15T01:21:09.674Z,0
2022-11-15T01:22:10.627Z,0
2022-11-15T01:23:11.562Z,0
2022-11-15T01:24:12.578Z,0
2022-11-15T01:25:13.112Z,0
2022-11-15T01:26:13.026Z,0
2022-11-15T01:27:13.620Z,0
2022-11-15T01:28:14.238Z,0
2022-11-15T01:29:15.430Z,0
2022-11-15T01:30:14.785Z,0
2022-11-15T01:31:15.711Z,0
2022-11-15T01:32:15.639Z,0
2022-11-15T01:33:16.866Z,0
2022-11-15T01:34:17.447Z,0
2022-11-15T01:35:18.372Z,0
2022-11-15T01:36:18.302Z,0
2022-11-15T01:37:18.489Z,0
2022-11-15T01:38:19.376Z,0
2022-11-15T01:39:19.597Z,0
2022-11-15T01:40:20.614Z,0
2022-11-15T01:41:20.800Z,0
2022-11-15T01:42:21.437Z,0
2022-11-15T01:43:22.349Z,0
2022-11-15T01:44:23.480Z,0
2022-11-15T01:45:23.107Z,0
2022-11-15T01:46:24.023Z,0
2022-11-15T01:47:24.250Z,0
2022-11-15T01:48:24.758Z,0
2022-11-15T01:49:24.949Z,0
2022-11-15T01:50:24.863Z,0
2022-11-15T01:51:25.752Z,0
2022-11-15T01:52:26.294Z,0
2022-11-15T01:53:26.498Z,0
2022-11-15T01:54:26.520Z,0
2022-11-15T01:55:27.436Z,0
2022-11-15T01:56:28.047Z,0
2022-11-15T01:57:29.233Z,0
2022-11-15T01:58:29.127Z,0
2022-11-15T01:59:30.037Z,0
2022-11-15T02:00:30.971Z,0
2022-11-15T02:01:32.237Z,0
2022-11-15T02:02:32.443Z,0
2022-11-15T02:03:33.610Z,0
2022-11-15T02:04:34.030Z,0
2022-11-15T02:05:34.217Z,0
2022-11-15T02:06:34.417Z,0
2022-11-15T02:07:35.230Z,0
2022-11-15T02:08:34.876Z,0
2022-11-15T02:09:35.126Z,0
2022-11-15T02:10:35.637Z,0
2022-11-15T02:11:35.535Z,0
2022-11-15T02:12:38.540Z,0
2022-11-15T02:13:38.087Z,0
2022-11-15T02:14:38.105Z,0
2022-11-15T02:15:38.695Z,0
2022-11-15T02:16:39.610Z,0
2022-11-15T02:17:39.236Z,0
2022-11-15T02:18:40.170Z,0
2022-11-15T02:19:40.380Z,0
2022-11-15T02:20:40.983Z,0
2022-11-15T02:21:41.625Z,0
2022-11-15T02:22:42.542Z,0
2022-11-15T02:23:43.354Z,0
2022-11-15T02:24:43.676Z,0
2022-11-15T02:25:43.306Z,0
2022-11-15T02:26:43.932Z,0
2022-11-15T02:27:45.422Z,0
2022-11-15T02:28:45.899Z,0
2022-11-15T02:29:46.096Z,0
2022-11-15T02:30:47.299Z,0
2022-11-15T02:31:47.485Z,0
2022-11-15T02:32:48.685Z,0
2022-11-15T02:33:48.606Z,0
2022-11-15T02:34:49.639Z,0
2022-11-15T02:35:50.548Z,0
2022-11-15T02:36:50.462Z,0
2022-11-15T02:37:51.089Z,0
2022-11-15T02:38:52.005Z,0
2022-11-15T02:39:53.242Z,0
2022-11-15T02:40:53.257Z,0
2022-11-15T02:41:54.174Z,0
2022-11-15T02:42:54.092Z,0
2022-11-15T02:43:55.376Z,0
2022-11-15T02:44:55.809Z,0
2022-11-15T02:45:57.006Z,0
2022-11-15T02:46:57.622Z,0
2022-11-15T02:47:58.828Z,0
2022-11-15T02:48:59.035Z,0
2022-11-15T02:49:59.517Z,0
2022-11-15T02:50:59.432Z,0
2022-11-15T02:52:00.321Z,0
2022-11-15T02:53:01.530Z,0
2022-11-15T02:54:01.857Z,0
2022-11-15T02:55:03.211Z,0
2022-11-15T02:56:04.158Z,0
2022-11-15T02:57:04.347Z,0
2022-11-15T02:58:04.535Z,0
2022-11-15T02:59:05.159Z,0
2022-11-15T03:00:05.775Z,0
2022-11-15T03:01:05.685Z,0
2022-11-15T03:02:06.147Z,0
2022-11-15T03:03:07.355Z,0
2022-11-15T03:04:07.710Z,0
2022-11-15T03:05:08.717Z,0
2022-11-15T03:06:09.353Z,0
2022-11-15T03:07:10.563Z,0
2022-11-15T03:08:13.967Z,0
2022-11-15T03:09:11.581Z,0
2022-11-15T03:10:11.804Z,0
2022-11-15T03:11:12.738Z,0
2022-11-15T03:12:13.334Z,0
2022-11-15T03:13:14.262Z,0
2022-11-15T03:14:14.172Z,0
2022-11-15T03:15:15.467Z,0
2022-11-15T03:16:16.391Z,0
2022-11-15T03:17:17.293Z,0
2022-11-15T03:18:17.924Z,0
2022-11-15T03:19:18.534Z,0
2022-11-15T03:20:19.448Z,0
2022-11-15T03:21:19.179Z,0
2022-11-15T03:22:20.388Z,0
2022-11-15T03:23:19.987Z,0
2022-11-15T03:24:25.774Z,0
2022-11-15T03:25:21.066Z,0
2022-11-15T03:26:20.989Z,0
2022-11-15T03:27:22.176Z,0
2022-11-15T03:28:23.086Z,0
2022-11-15T03:29:22.976Z,0
2022-11-15T03:30:23.582Z,0
2022-11-15T03:31:24.195Z,0
2022-11-15T03:32:25.384Z,0
2022-11-15T03:33:25.605Z,0
2022-11-15T03:34:25.895Z,0
2022-11-15T03:35:25.902Z,0
2022-11-15T03:36:26.532Z,0
2022-11-15T03:37:26.869Z,0
2022-11-15T03:38:28.460Z,0
2022-11-15T03:39:31.320Z,0
2022-11-15T03:40:29.286Z,0
2022-11-15T03:41:30.327Z,0
2022-11-15T03:42:30.997Z,0
2022-11-15T03:43:31.660Z,0
2022-11-15T03:44:32.784Z,0
2022-11-15T03:45:33.165Z,0
2022-11-15T03:46:35.078Z,0
2022-11-15T03:47:34.996Z,0
2022-11-15T03:48:35.897Z,0
2022-11-15T03:49:36.822Z,0
2022-11-15T03:50:37.307Z,0
2022-11-15T03:51:37.495Z,0
2022-11-15T03:52:37.862Z,0
2022-11-15T03:53:39.850Z,0
2022-11-15T03:54:40.050Z,0
2022-11-15T03:55:41.095Z,0
2022-11-15T03:56:42.307Z,0
2022-11-15T03:57:42.944Z,0
2022-11-15T03:58:43.556Z,0
2022-11-15T03:59:43.494Z,0
2022-11-15T04:00:43.596Z,0
2022-11-15T04:01:45.192Z,0
2022-11-15T04:02:44.543Z,0
2022-11-15T04:03:45.636Z,0
2022-11-15T04:04:46.836Z,0
2022-11-15T04:05:46.815Z,0
2022-11-15T04:06:47.756Z,0
2022-11-15T04:07:50.095Z,0
2022-11-15T04:08:49.472Z,0
2022-11-15T04:09:50.083Z,0
2022-11-15T04:10:51.028Z,0
2022-11-15T04:11:51.654Z,0
2022-11-15T04:12:51.850Z,0
2022-11-15T04:13:52.763Z,0
2022-11-15T04:14:53.401Z,0
2022-11-15T04:15:54.722Z,0
2022-11-15T04:16:55.084Z,0
2022-11-15T04:17:54.984Z,0
2022-11-15T04:18:55.900Z,0
2022-11-15T04:19:56.398Z,0
2022-11-15T04:20:56.314Z,0
2022-11-15T04:21:56.521Z,0
2022-11-15T04:22:57.426Z,0
2022-11-15T04:23:57.609Z,0
2022-11-15T04:24:58.513Z,0
2022-11-15T04:25:58.823Z,0
2022-11-15T04:26:59.381Z,0
2022-11-15T04:27:59.565Z,0
2022-11-15T04:28:59.474Z,0
2022-11-15T04:30:00.172Z,0
2022-11-15T04:31:00.532Z,0
2022-11-15T04:32:01.153Z,0
2022-11-15T04:33:02.059Z,0
2022-11-15T04:34:02.297Z,0
2022-11-15T04:35:03.232Z,0
2022-11-15T04:36:02.935Z,0
2022-11-15T04:37:04.118Z,0
2022-11-15T04:38:04.038Z,0
2022-11-15T04:39:04.649Z,0
2022-11-15T04:40:05.561Z,0
2022-11-15T04:41:06.792Z,0
2022-11-15T04:42:07.085Z,0
2022-11-15T04:43:14.669Z,0
2022-11-15T04:44:07.281Z,0
2022-11-15T04:45:08.190Z,0
2022-11-15T04:46:08.876Z,0
2022-11-15T04:47:09.796Z,0
2022-11-15T04:48:10.295Z,0
2022-11-15T04:49:10.768Z,0
2022-11-15T04:50:10.972Z,0
2022-11-15T04:51:11.146Z,0
2022-11-15T04:52:11.756Z,0
2022-11-15T04:53:12.969Z,0
2022-11-15T04:54:13.868Z,0
2022-11-15T04:55:19.287Z,0
2022-11-15T04:56:15.651Z,0
2022-11-15T04:57:15.880Z,0
2022-11-15T04:58:16.828Z,0
2022-11-15T04:59:17.463Z,0
2022-11-15T05:00:18.377Z,0
2022-11-15T05:01:19.094Z,0
2022-11-15T05:02:20.251Z,0
2022-11-15T05:03:20.585Z,0
2022-11-15T05:04:21.513Z,0
2022-11-15T05:05:22.211Z,0
2022-11-15T05:06:22.637Z,0
2022-11-15T05:07:24.117Z,0
2022-11-15T05:08:24.061Z,0
2022-11-15T05:09:24.774Z,0
2022-11-15T05:10:25.094Z,0
2022-11-15T05:11:26.039Z,0
2022-11-15T05:12:26.525Z,0
2022-11-15T05:13:25.837Z,0
2022-11-15T05:14:26.837Z,0
2022-11-15T05:15:27.454Z,0
2022-11-15T05:16:28.771Z,0
2022-11-15T05:17:29.110Z,0
2022-11-15T05:18:34.069Z,0
2022-11-15T05:19:31.283Z,0
2022-11-15T05:20:32.502Z,0
2022-11-15T05:21:32.410Z,0
2022-11-15T05:22:33.302Z,0
2022-11-15T05:23:33.875Z,0
2022-11-15T05:24:34.024Z,0
2022-11-15T05:25:34.662Z,0
2022-11-15T05:26:35.741Z,0
2022-11-15T05:27:35.653Z,0
2022-11-15T05:28:36.860Z,0
2022-11-15T05:29:36.755Z,0
2022-11-15T05:30:37.654Z,0
2022-11-15T05:31:38.134Z,0
2022-11-15T05:32:38.036Z,0
2022-11-15T05:33:39.793Z,0
2022-11-15T05:34:39.988Z,0
2022-11-15T05:35:40.922Z,0
2022-11-15T05:36:41.935Z,0
2022-11-15T05:37:42.563Z,0
2022-11-15T05:38:43.198Z,0
2022-11-15T05:39:44.106Z,0
2022-11-15T05:40:45.015Z,0
2022-11-15T05:41:45.968Z,0
2022-11-15T05:42:46.282Z,0
2022-11-15T05:43:46.491Z,0
2022-11-15T05:44:47.383Z,0
2022-11-15T05:45:46.991Z,0
2022-11-15T05:46:47.971Z,0
2022-11-15T05:47:48.599Z,0
2022-11-15T05:48:49.212Z,0
2022-11-15T05:49:49.426Z,0
2022-11-15T05:50:49.631Z,0
2022-11-15T05:51:50.537Z,0
2022-11-15T05:52:51.035Z,0
2022-11-15T05:53:50.913Z,4
2022-11-15T05:54:52.123Z,4
2022-11-15T05:55:52.024Z,0
2022-11-15T05:56:52.743Z,4
2022-11-15T05:57:52.962Z,4
2022-11-15T05:58:56.815Z,4
2022-11-15T05:59:54.528Z,4
2022-11-15T06:00:55.433Z,4
2022-11-15T06:01:55.828Z,8
2022-11-15T06:02:56.468Z,8
2022-11-15T06:03:55.794Z,8
2022-11-15T06:04:57.032Z,8
2022-11-15T06:05:57.958Z,12
2022-11-15T06:06:58.927Z,12
2022-11-15T06:07:59.271Z,12
2022-11-15T06:09:00.196Z,16
2022-11-15T06:10:00.111Z,16
2022-11-15T06:11:01.336Z,20
2022-11-15T06:12:01.578Z,24
2022-11-15T06:13:02.493Z,24
2022-11-15T06:14:03.127Z,28
2022-11-15T06:15:03.763Z,32
2022-11-15T06:16:04.682Z,32
2022-11-15T06:17:10.132Z,36
2022-11-15T06:18:05.800Z,40
2022-11-15T06:19:06.695Z,44
2022-11-15T06:20:07.191Z,48
2022-11-15T06:21:06.813Z,52
2022-11-15T06:22:08.026Z,56
2022-11-15T06:23:07.669Z,60
2022-11-15T06:24:08.857Z,64
2022-11-15T06:25:13.379Z,72
2022-11-15T06:26:09.024Z,80
2022-11-15T06:27:09.477Z,84
2022-11-15T06:28:10.113Z,88
2022-11-15T06:29:11.300Z,96
2022-11-15T06:30:11.668Z,100
2022-11-15T06:31:12.599Z,108
2022-11-15T06:32:13.812Z,116
2022-11-15T06:33:14.301Z,120
2022-11-15T06:34:14.538Z,132
2022-11-15T06:35:14.838Z,136
2022-11-15T06:36:23.592Z,144
2022-11-15T06:37:16.025Z,152
2022-11-15T06:38:16.670Z,156
2022-11-15T06:39:17.582Z,164
2022-11-15T06:40:17.913Z,168
2022-11-15T06:41:18.833Z,176
2022-11-15T06:42:19.788Z,188
2022-11-15T06:43:19.999Z,204
2022-11-15T06:44:20.912Z,300
2022-11-15T06:45:20.829Z,444
2022-11-15T06:46:22.040Z,452
2022-11-15T06:47:23.026Z,352
2022-11-15T06:48:23.366Z,308
2022-11-15T06:49:24.572Z,296
2022-11-15T06:50:24.477Z,268
2022-11-15T06:51:25.390Z,276
2022-11-15T06:52:26.610Z,284
2022-11-15T06:53:26.512Z,292
2022-11-15T06:54:27.029Z,288
2022-11-15T06:55:27.518Z,288
2022-11-15T06:56:27.115Z,296
2022-11-15T06:57:27.869Z,308
2022-11-15T06:58:27.999Z,348
2022-11-15T06:59:29.208Z,376
2022-11-15T07:00:30.146Z,372
2022-11-15T07:01:30.818Z,352
2022-11-15T07:02:31.470Z,356
2022-11-15T07:03:31.580Z,368
2022-11-15T07:04:31.966Z,404
2022-11-15T07:05:32.469Z,444
2022-11-15T07:06:32.372Z,468
2022-11-15T07:07:33.674Z,620
2022-11-15T07:08:33.771Z,1092
2022-11-15T07:09:34.419Z,1644
2022-11-15T07:10:35.617Z,2144
2022-11-15T07:11:35.532Z,2648
2022-11-15T07:12:35.780Z,2916
2022-11-15T07:13:37.048Z,3328
2022-11-15T07:14:36.675Z,3012
2022-11-15T07:15:37.318Z,2828
2022-11-15T07:16:38.515Z,3140
2022-11-15T07:17:38.836Z,3388
2022-11-15T07:18:38.758Z,3884
2022-11-15T07:19:39.405Z,4204
2022-11-15T07:20:40.455Z,3920
2022-11-15T07:21:41.987Z,3768
2022-11-15T07:22:41.479Z,3480
2022-11-15T07:23:42.375Z,3172
2022-11-15T07:24:42.830Z,2784
2022-11-15T07:25:43.549Z,2512
2022-11-15T07:26:43.686Z,2312
2022-11-15T07:27:44.408Z,2276
2022-11-15T07:28:45.686Z,2432
2022-11-15T07:29:45.318Z,2384
2022-11-15T07:30:50.829Z,2128
2022-11-15T07:31:46.478Z,2424
2022-11-15T07:32:47.399Z,2952
2022-11-15T07:33:48.622Z,2580
2022-11-15T07:34:49.126Z,1904
2022-11-15T07:35:48.769Z,1892
2022-11-15T07:36:50.275Z,1876
2022-11-15T07:37:50.730Z,1856
2022-11-15T07:38:54.270Z,2116
2022-11-15T07:39:52.463Z,2204
2022-11-15T07:40:52.071Z,2232
2022-11-15T07:41:53.268Z,2308
2022-11-15T07:42:53.967Z,2340
2022-11-15T07:43:55.028Z,2636
2022-11-15T07:44:55.650Z,2812
2022-11-15T07:46:05.118Z,3108
2022-11-15T07:46:57.180Z,3632
2022-11-15T07:47:58.205Z,4392
2022-11-15T07:48:58.699Z,4324
2022-11-15T07:49:58.620Z,3108
2022-11-15T07:50:59.834Z,2572
2022-11-15T07:51:59.709Z,2668
2022-11-15T07:53:00.913Z,2624
2022-11-15T07:54:01.254Z,3488
2022-11-15T07:55:01.471Z,4356
2022-11-15T07:56:01.697Z,4368
2022-11-15T07:57:07.418Z,4692
2022-11-15T07:58:03.274Z,5596
2022-11-15T07:59:03.809Z,6240
2022-11-15T08:00:04.084Z,5068
2022-11-15T08:01:04.746Z,3316
2022-11-15T08:02:04.792Z,2344
2022-11-15T08:03:04.862Z,2212
2022-11-15T08:04:04.827Z,1848
2022-11-15T08:05:05.338Z,1424
2022-11-15T08:06:05.051Z,1216
2022-11-15T08:07:06.277Z,1308
2022-11-15T08:08:07.061Z,1988
2022-11-15T08:09:07.257Z,2688
2022-11-15T08:10:07.480Z,2796
2022-11-15T08:11:08.101Z,3036
2022-11-15T08:12:08.748Z,2920
2022-11-15T08:13:10.365Z,2700
2022-11-15T08:14:11.013Z,3276
2022-11-15T08:15:10.924Z,3468
2022-11-15T08:16:12.250Z,2616
2022-11-15T08:17:12.467Z,1948
2022-11-15T08:18:12.547Z,2024
2022-11-15T08:19:12.487Z,2448
2022-11-15T08:20:13.146Z,3364
2022-11-15T08:21:18.361Z,3516
2022-11-15T08:22:14.418Z,2060
2022-11-15T08:23:15.340Z,1404
2022-11-15T08:24:15.243Z,1440
2022-11-15T08:25:16.464Z,1168
2022-11-15T08:26:16.375Z,956
2022-11-15T08:27:18.169Z,904
2022-11-15T08:28:17.780Z,900
2022-11-15T08:29:18.290Z,908
2022-11-15T08:30:18.474Z,912
2022-11-15T08:31:19.412Z,912
2022-11-15T08:32:19.330Z,936
2022-11-15T08:33:19.532Z,996
2022-11-15T08:34:20.449Z,1284
2022-11-15T08:35:24.838Z,2028
2022-11-15T08:36:21.818Z,2504
2022-11-15T08:37:22.060Z,3820
2022-11-15T08:38:22.732Z,4936
2022-11-15T08:39:22.993Z,4404
2022-11-15T08:40:23.973Z,4368
2022-11-15T08:41:24.534Z,4952
2022-11-15T08:42:30.681Z,3132
2022-11-15T08:43:25.669Z,2428
2022-11-15T08:44:26.539Z,1852
2022-11-15T08:45:27.745Z,1716
2022-11-15T08:46:27.690Z,1596
2022-11-15T08:47:29.210Z,1400
2022-11-15T08:48:29.709Z,1352
2022-11-15T08:49:30.164Z,1468
2022-11-15T08:50:30.751Z,1816
2022-11-15T08:51:30.474Z,2568
2022-11-15T08:52:31.739Z,2892
2022-11-15T08:53:31.967Z,2720
2022-11-15T08:54:32.642Z,2120
2022-11-15T08:55:36.214Z,2024
2022-11-15T08:56:34.158Z,2896
2022-11-15T08:57:34.076Z,2980
2022-11-15T08:58:36.530Z,2276
2022-11-15T08:59:35.761Z,2428
2022-11-15T09:00:35.893Z,2272
2022-11-15T09:01:37.643Z,1676
2022-11-15T09:02:37.709Z,2064
2022-11-15T09:03:38.347Z,2604
2022-11-15T09:04:38.709Z,1984
2022-11-15T09:05:39.381Z,1628
2022-11-15T09:06:46.319Z,1740
2022-11-15T09:07:41.634Z,1872
2022-11-15T09:09:01.221Z,2108
2022-11-15T09:10:00.878Z,2208
2022-11-15T09:11:02.375Z,3076
2022-11-15T09:15:05.860Z,3360
2022-11-15T09:16:05.906Z,3420
2022-11-15T09:17:07.076Z,2784
2022-11-15T09:18:07.000Z,2720
2022-11-15T09:19:12.105Z,3568
2022-11-15T09:20:08.354Z,2900
2022-11-15T09:21:08.582Z,1904
2022-11-15T09:22:08.540Z,1800
2022-11-15T09:23:09.775Z,2168
2022-11-15T09:24:09.702Z,2448
2022-11-15T09:25:16.381Z,2760
2022-11-15T09:26:10.845Z,3616
2022-11-15T09:27:12.054Z,3680
2022-11-15T09:28:13.364Z,4000
2022-11-15T09:29:14.394Z,4460
2022-11-15T09:30:14.705Z,4264
2022-11-15T09:31:19.330Z,4196
2022-11-15T09:32:15.204Z,4844
2022-11-15T09:33:16.412Z,4760
2022-11-15T09:34:16.632Z,3468
2022-11-15T09:35:17.562Z,2944
2022-11-15T09:36:18.207Z,4000
2022-11-15T09:37:17.881Z,5140
2022-11-15T09:38:18.847Z,6336
2022-11-15T09:39:19.947Z,6560
2022-11-15T09:40:19.956Z,6464
2022-11-15T09:41:20.458Z,6336
2022-11-15T09:42:20.407Z,5284
2022-11-15T09:43:21.630Z,4588
2022-11-15T09:44:31.191Z,4720
2022-11-15T09:45:22.453Z,4296
2022-11-15T09:46:22.157Z,4056
2022-11-15T09:47:23.661Z,4096
2022-11-15T09:48:23.892Z,3888
2022-11-15T09:49:24.285Z,3308
2022-11-15T09:50:25.496Z,4488
2022-11-15T09:51:26.459Z,5600
2022-11-15T09:52:26.998Z,6052
2022-11-15T09:54:59.880Z,5864
2022-11-15T09:55:17.088Z,5576
2022-11-15T09:56:17.232Z,4176
2022-11-15T09:57:22.217Z,3800
2022-11-15T09:58:18.118Z,4248
2022-11-15T09:59:17.759Z,4436
2022-11-15T10:00:55.963Z,4536
2022-11-15T10:01:20.373Z,5120
2022-11-15T10:02:20.405Z,6560
2022-11-15T10:03:21.343Z,7556
2022-11-15T10:04:23.936Z,8932
2022-11-15T10:05:22.147Z,9072
2022-11-15T10:06:22.657Z,9972
2022-11-15T10:07:23.154Z,11296
2022-11-15T10:08:23.332Z,11868
2022-11-15T10:09:29.579Z,11740
2022-11-15T10:10:24.668Z,11564
2022-11-15T10:11:54.869Z,12608
2022-11-15T10:12:25.830Z,12976
2022-11-15T10:13:26.777Z,13144
2022-11-15T10:14:26.995Z,13328
2022-11-15T10:15:27.508Z,13596
2022-11-15T10:16:28.105Z,13500
2022-11-15T10:17:28.511Z,13472
2022-11-15T10:18:28.633Z,13396
2022-11-15T10:19:29.071Z,12820
2022-11-15T10:20:29.799Z,12992
2022-11-15T10:21:29.730Z,13612
2022-11-15T10:22:31.230Z,13204
2022-11-15T10:23:30.927Z,12652
2022-11-15T10:24:31.606Z,12136
2022-11-15T10:25:32.851Z,12148
2022-11-15T10:26:33.948Z,11600
2022-11-15T10:27:33.988Z,10892
2022-11-15T10:28:34.742Z,11640
2022-11-15T10:29:38.343Z,12740
2022-11-15T10:30:34.976Z,12528
2022-11-15T10:31:36.795Z,11568
2022-11-15T10:32:37.300Z,11436
2022-11-15T10:33:37.861Z,11808
2022-11-15T10:34:38.074Z,11628
2022-11-15T10:35:38.070Z,10848
2022-11-15T10:36:39.577Z,9856
2022-11-15T10:37:39.807Z,8404
2022-11-15T10:38:41.547Z,7436
2022-11-15T10:39:42.081Z,7628
2022-11-15T10:40:42.062Z,7548
2022-11-15T10:41:43.365Z,6932
2022-11-15T10:42:43.949Z,7076
2022-11-15T10:43:44.463Z,7144
2022-11-15T10:44:44.700Z,7992
2022-11-15T10:45:44.841Z,9208
2022-11-15T10:47:00.316Z,7776
2022-11-15T10:47:52.132Z,6580
2022-11-15T10:48:52.342Z,7464
2022-11-15T10:49:52.552Z,9716
2022-11-15T10:50:53.727Z,10184
2022-11-15T10:51:53.385Z,10208
2022-11-15T10:52:54.928Z,11156
2022-11-15T10:53:55.172Z,11580
2022-11-15T10:54:55.404Z,11384
2022-11-15T10:55:56.078Z,10876
2022-11-15T10:56:57.026Z,10376
2022-11-15T10:57:56.891Z,8768
2022-11-15T10:58:57.574Z,6620
2022-11-15T10:59:58.812Z,6524
2022-11-15T11:01:00.252Z,8072
2022-11-15T11:02:00.613Z,8036
2022-11-15T11:03:01.210Z,7796
2022-11-15T11:04:01.150Z,7808
2022-11-15T11:05:01.858Z,7704
2022-11-15T11:06:02.857Z,7888
2022-11-15T11:07:04.105Z,7156
2022-11-15T11:08:04.449Z,5960
2022-11-15T11:09:05.127Z,8264
2022-11-15T11:10:17.694Z,10832
2022-11-15T11:11:13.279Z,11040
2022-11-15T11:12:07.225Z,10984
2022-11-15T11:13:08.163Z,9580
2022-11-15T11:14:08.675Z,5844
2022-11-15T11:15:09.059Z,4056
2022-11-15T11:16:10.015Z,6264
2022-11-15T11:17:10.544Z,7984
2022-11-15T11:18:11.300Z,6236
2022-11-15T11:19:11.503Z,3380
2022-11-15T11:20:12.010Z,3396
2022-11-15T11:21:12.245Z,4104
2022-11-15T11:22:12.654Z,3844
2022-11-15T11:23:13.600Z,5040
2022-11-15T11:24:13.864Z,6116
2022-11-15T11:25:14.104Z,5952
2022-11-15T11:26:15.378Z,4760
2022-11-15T11:27:15.064Z,3160
2022-11-15T11:28:15.608Z,3096
2022-11-15T11:29:17.113Z,4268
2022-11-15T11:30:17.361Z,5912
2022-11-15T11:31:18.036Z,6624
2022-11-15T11:32:19.322Z,6668
2022-11-15T11:33:19.579Z,7084
2022-11-15T11:34:19.812Z,7764
2022-11-15T11:35:20.723Z,7316
2022-11-15T11:36:20.726Z,7032
2022-11-15T11:37:21.409Z,6676
2022-11-15T11:38:22.192Z,5580
2022-11-15T11:39:22.762Z,5096
2022-11-15T11:40:22.683Z,5628
2022-11-15T11:41:22.883Z,5236
2022-11-15T11:42:22.791Z,4432
2022-11-15T11:43:23.437Z,4304
2022-11-15T11:44:24.393Z,4656
2022-11-15T11:45:25.336Z,5160
2022-11-15T11:46:26.258Z,5528
2022-11-15T11:47:27.020Z,5676
2022-11-15T11:48:28.114Z,4980
2022-11-15T11:49:28.559Z,4844
2022-11-15T11:50:29.498Z,5108
2022-11-15T11:51:30.705Z,6604
2022-11-15T11:52:31.200Z,7500
2022-11-15T11:53:31.705Z,7128
2022-11-15T11:54:31.943Z,6444
2022-11-15T11:55:33.192Z,6512
2022-11-15T11:56:32.870Z,6664
2022-11-15T11:57:33.504Z,6404
2022-11-15T11:58:35.650Z,5840
2022-11-15T11:59:35.872Z,5044
2022-11-15T12:00:36.390Z,4780
2022-11-15T12:01:36.736Z,5776
2022-11-15T12:02:38.072Z,6904
2022-11-15T12:03:38.494Z,7596
2022-11-15T12:04:38.982Z,7976
2022-11-15T12:05:39.184Z,7912
2022-11-15T12:06:40.103Z,7416
2022-11-15T12:07:41.045Z,6904
2022-11-15T12:08:42.873Z,6704
2022-11-15T12:09:43.127Z,6940
2022-11-15T12:10:43.356Z,7232
2022-11-15T12:11:44.322Z,7344
2022-11-15T12:12:44.225Z,7076
2022-11-15T12:13:44.854Z,6372
2022-11-15T12:14:45.505Z,6052
2022-11-15T12:15:45.597Z,6344
2022-11-15T12:16:47.111Z,6300
2022-11-15T12:17:47.337Z,6308
2022-11-15T12:18:47.734Z,6220
2022-11-15T12:19:48.653Z,5904
2022-11-15T12:20:49.593Z,5828
2022-11-15T12:21:50.099Z,5812
2022-11-15T12:22:50.023Z,5296
2022-11-15T12:23:51.621Z,4932
2022-11-15T12:24:51.258Z,4884
2022-11-15T12:25:52.786Z,4764
2022-11-15T12:26:52.895Z,4596
2022-11-15T12:27:52.833Z,5016
2022-11-15T12:29:17.283Z,5556
2022-11-15T12:29:54.797Z,5560
2022-11-15T12:30:55.056Z,5236
2022-11-15T12:31:55.395Z,4972
2022-11-15T12:32:56.351Z,5072
2022-11-15T12:33:56.942Z,4820
2022-11-15T12:34:56.693Z,4400
2022-11-15T12:35:57.915Z,4392
2022-11-15T12:36:58.312Z,4132
2022-11-15T12:37:58.962Z,3772
2022-11-15T12:38:59.422Z,3764
2022-11-15T12:40:03.450Z,3940
2022-11-15T12:40:59.694Z,3672
2022-11-15T12:42:01.203Z,4028
2022-11-15T12:43:01.128Z,4372
2022-11-15T12:44:02.368Z,4572
2022-11-15T12:45:03.607Z,4872
2022-11-15T12:46:03.546Z,4612
2022-11-15T12:47:04.195Z,4596
2022-11-15T12:48:04.953Z,4284
2022-11-15T12:49:05.752Z,4376
2022-11-15T12:50:05.965Z,4404
2022-11-15T12:51:06.380Z,4396
2022-11-15T12:52:06.776Z,4912
2022-11-15T12:53:07.995Z,4732
2022-11-15T12:54:07.625Z,4328
2022-11-15T12:55:09.153Z,4668
2022-11-15T12:56:10.105Z,4620
2022-11-15T12:57:10.739Z,4460
2022-11-15T12:58:11.669Z,4584
2022-11-15T12:59:12.430Z,4480
2022-11-15T13:00:13.663Z,4680
2022-11-15T13:01:13.834Z,5348
2022-11-15T13:02:14.546Z,5376
2022-11-15T13:03:15.491Z,5216
2022-11-15T13:04:15.768Z,5420
2022-11-15T13:05:15.968Z,5724
2022-11-15T13:06:15.597Z,5524
2022-11-15T13:07:16.551Z,5436
2022-11-15T13:08:16.566Z,5304
2022-11-15T13:09:17.589Z,5456
2022-11-15T13:10:17.583Z,5604
2022-11-15T13:11:18.788Z,5576
2022-11-15T13:12:19.008Z,5580
2022-11-15T13:13:18.958Z,5556
2022-11-15T13:14:19.616Z,5444
2022-11-15T13:15:19.930Z,5420
2022-11-15T13:16:20.132Z,5348
2022-11-15T13:17:20.788Z,5288
2022-11-15T13:18:21.468Z,5176
2022-11-15T13:19:22.261Z,4936
2022-11-15T13:20:23.186Z,4796
2022-11-15T13:21:24.127Z,4992
2022-11-15T13:22:25.345Z,4916
2022-11-15T13:23:25.548Z,4868
2022-11-15T13:24:25.924Z,4740
2022-11-15T13:25:27.449Z,4628
2022-11-15T13:26:27.414Z,4568
2022-11-15T13:27:27.345Z,4304
2022-11-15T13:28:28.282Z,3796
2022-11-15T13:29:29.046Z,3788
2022-11-15T13:30:29.264Z,4176
2022-11-15T13:31:29.493Z,4456
2022-11-15T13:32:30.425Z,4504
2022-11-15T13:33:35.662Z,4380
2022-11-15T13:34:58.697Z,4132
2022-11-15T13:35:32.654Z,3824
2022-11-15T13:36:32.313Z,3768
2022-11-15T13:37:33.609Z,3648
2022-11-15T13:38:34.001Z,3464
2022-11-15T13:39:34.621Z,3236
2022-11-15T13:40:34.267Z,3384
2022-11-15T13:41:35.241Z,3300
2022-11-15T13:42:35.793Z,3664
2022-11-15T13:43:36.237Z,3600
2022-11-15T13:44:37.178Z,3360
2022-11-15T13:45:38.112Z,3304
2022-11-15T13:46:38.481Z,3152
2022-11-15T13:47:39.706Z,3336
2022-11-15T13:48:40.974Z,3428
2022-11-15T13:49:41.345Z,3372
2022-11-15T13:50:41.903Z,3196
2022-11-15T13:51:42.157Z,2992
2022-11-15T13:52:42.718Z,2496
2022-11-15T13:53:43.348Z,2408
2022-11-15T13:54:43.301Z,2380
2022-11-15T13:55:43.687Z,2404
2022-11-15T13:56:44.215Z,2640
2022-11-15T13:57:43.847Z,3028
2022-11-15T13:58:45.560Z,1800
2022-11-15T13:59:44.591Z,956
2022-11-15T14:00:46.101Z,1152
2022-11-15T14:01:45.867Z,1836
2022-11-15T14:02:47.276Z,1128
2022-11-15T14:03:47.541Z,1936
2022-11-15T14:04:47.757Z,1840
2022-11-15T14:05:49.019Z,908
2022-11-15T14:06:48.983Z,696
2022-11-15T14:07:54.772Z,652
2022-11-15T14:08:50.110Z,652